Time;durP1;ratioP1;P1;durP2;ratioP2;P2;SDS_P1;SDS_P2;PMS_P1;PMS_P2;Temp;Humidity;BMP_temperature;BMP_pressure;BME280_temperature;BME280_humidity;BME280_pressure;Samples;Min_cycle;Max_cycle;Signal;HPM_P1;HPM_P2
2021/07/11 00:01:09;;;;;;;3.30;1.98;;;;;;;24.88;45.35;99667.81;4918024;29;20135;-83
2021/07/11 00:03:36;;;;;;;4.43;1.90;;;;;;;24.76;44.57;99660.22;4917533;29;20130;-83
2021/07/11 00:06:03;;;;;;;2.13;1.80;;;;;;;24.90;43.85;99668.44;4917752;29;20080;-83
2021/07/11 00:08:30;;;;;;;5.75;2.00;;;;;;;25.07;43.71;99664.59;4917643;29;20079;-83
2021/07/11 00:10:57;;;;;;;4.00;2.20;;;;;;;24.70;44.54;99660.13;4918871;29;20499;-83
2021/07/11 00:13:24;;;;;;;2.60;1.80;;;;;;;24.71;44.06;99659.13;4931604;29;20131;-83
2021/07/11 00:15:51;;;;;;;5.90;1.60;;;;;;;24.85;43.66;99655.66;4917862;29;20137;-83
2021/07/11 00:18:18;;;;;;;2.45;2.00;;;;;;;25.07;43.38;99659.25;4917630;29;20091;-83
2021/07/11 00:20:45;;;;;;;4.32;1.90;;;;;;;24.97;43.32;99656.84;4927320;29;20045;-83
2021/07/11 00:23:12;;;;;;;2.67;1.85;;;;;;;25.08;43.05;99668.91;4923089;29;20055;-83
2021/07/11 00:25:40;;;;;;;2.03;1.27;;;;;;;24.99;43.37;99654.84;4928326;29;20119;-83
2021/07/11 00:28:07;;;;;;;1.70;1.60;;;;;;;24.87;43.28;99656.28;4920628;29;20044;-83
2021/07/11 00:30:34;;;;;;;3.15;1.42;;;;;;;24.99;43.07;99651.34;4925144;29;20466;-82
2021/07/11 00:33:01;;;;;;;5.18;2.65;;;;;;;25.00;43.06;99651.16;4936661;29;20398;-82
2021/07/11 00:35:28;;;;;;;5.97;1.67;;;;;;;25.02;43.40;99656.28;4930868;29;20044;-83
2021/07/11 00:37:55;;;;;;;2.28;1.70;;;;;;;25.12;42.87;99672.03;4917415;29;20070;-82
2021/07/11 00:40:24;;;;;;;2.28;1.33;;;;;;;25.13;42.67;99663.03;4915665;29;20040;-82
2021/07/11 00:42:52;;;;;;;2.97;1.73;;;;;;;25.04;42.95;99667.63;4917544;29;20439;-82
2021/07/11 00:45:19;;;;;;;2.60;2.05;;;;;;;24.77;43.07;99667.22;4917371;29;20439;-82
2021/07/11 00:47:48;;;;;;;3.33;1.75;;;;;;;24.97;42.75;99661.34;4934592;29;20047;-83
2021/07/11 00:50:19;;;;;;;2.05;1.73;;;;;;;25.11;42.74;99662.41;4934745;29;20094;-82
2021/07/11 00:52:54;;;;;;;3.85;1.42;;;;;;;25.03;42.40;99650.75;4934652;29;20047;-82
2021/07/11 00:55:24;;;;;;;3.55;2.55;;;;;;;25.08;42.41;99661.72;4931446;29;20411;-82
2021/07/11 00:57:52;;;;;;;2.67;1.58;;;;;;;24.99;42.78;99660.16;4929201;29;20046;-83
2021/07/11 01:00:23;;;;;;;3.63;1.77;;;;;;;25.04;42.79;99649.78;4934744;29;20131;-83
2021/07/11 01:03:16;;;;;;;4.22;1.70;;;;;;;24.69;44.23;99645.16;4934232;29;20135;-81
2021/07/11 01:05:47;;;;;;;2.92;1.50;;;;;;;24.60;45.03;99648.91;4924558;29;20059;-83
2021/07/11 01:08:22;;;;;;;3.75;1.50;;;;;;;24.59;45.24;99650.75;4923753;29;20122;-81
2021/07/11 01:11:00;;;;;;;1.70;1.60;;;;;;;24.65;44.81;99659.84;4929289;29;20048;-83
2021/07/11 01:13:28;;;;;;;2.35;1.80;;;;;;;24.52;45.57;99665.81;4915164;29;20133;-82
2021/07/11 01:16:00;;;;;;;2.35;1.92;;;;;;;24.30;45.99;99670.97;4916825;29;20120;-82
2021/07/11 01:18:30;;;;;;;2.47;1.73;;;;;;;24.02;47.11;99669.84;4914913;29;20082;-83
2021/07/11 01:21:09;;;;;;;1.92;1.83;;;;;;;24.30;46.52;99672.81;4930200;29;20098;-83
2021/07/11 01:24:10;;;;;;;11.20;2.47;;;;;;;24.26;46.35;99685.63;4924624;29;20066;-85
2021/07/11 01:26:37;;;;;;;2.88;1.35;;;;;;;24.39;45.91;99685.06;4934441;29;20103;-83
2021/07/11 01:29:06;;;;;;;2.58;1.48;;;;;;;24.55;45.60;99678.75;4914739;29;20119;-84
2021/07/11 01:31:34;;;;;;;2.15;1.40;;;;;;;24.50;45.42;99679.31;4916337;29;20048;-83
2021/07/11 01:34:02;;;;;;;3.13;2.10;;;;;;;24.54;45.30;99671.78;4919041;29;20052;-84
2021/07/11 01:36:30;;;;;;;2.22;1.52;;;;;;;24.34;45.60;99684.72;4915010;29;20084;-84
2021/07/11 01:38:59;;;;;;;2.55;1.67;;;;;;;24.22;45.98;99688.81;4916528;29;20056;-84
2021/07/11 01:41:38;;;;;;;1.75;1.60;;;;;;;24.48;46.20;99721.28;4933678;29;20039;-84
2021/07/11 01:44:08;;;;;;;4.85;2.00;;;;;;;24.05;48.06;99706.75;4922104;29;20111;-83
2021/07/11 01:46:41;;;;;;;2.28;2.08;;;;;;;23.62;49.15;99687.69;4924087;23;20072;31
2021/07/11 01:49:15;;;;;;;4.97;1.95;;;;;;;23.53;49.61;99686.06;4917071;29;20051;-80
2021/07/11 01:51:48;;;;;;;4.80;2.13;;;;;;;23.63;49.10;99684.06;4921248;29;20130;-81
2021/07/11 01:54:16;;;;;;;6.15;2.03;;;;;;;23.47;49.63;99692.09;4952978;28;20298;-81
2021/07/11 01:56:48;;;;;;;4.38;2.00;;;;;;;23.30;50.30;99699.31;4936771;29;20051;-79
2021/07/11 01:59:21;;;;;;;12.63;2.65;;;;;;;23.30;50.14;99704.63;4938335;29;20082;-80
2021/07/11 02:01:58;;;;;;;5.47;2.85;;;;;;;23.25;50.17;99702.47;4954107;29;20063;-81
2021/07/11 02:04:26;;;;;;;4.60;2.22;;;;;;;23.13;50.59;99695.03;4953223;28;20537;-81
2021/07/11 02:06:53;;;;;;;3.33;2.05;;;;;;;23.11;50.91;99686.41;4952847;29;20047;-81
2021/07/11 02:09:24;;;;;;;5.50;2.17;;;;;;;23.04;51.12;99699.53;4954301;29;20444;-81
2021/07/11 02:12:05;;;;;;;6.65;2.75;;;;;;;22.94;51.50;99705.03;4936801;29;20047;-81
2021/07/11 02:14:48;;;;;;;3.08;2.50;;;;;;;23.09;51.58;99699.88;4934085;29;20467;-80
2021/07/11 02:17:20;;;;;;;4.15;2.85;;;;;;;23.09;51.59;99704.34;4934846;29;20044;-79
2021/07/11 02:20:01;;;;;;;4.53;2.97;;;;;;;22.88;52.17;99691.59;4934144;29;20146;-80
2021/07/11 02:22:34;;;;;;;3.03;2.65;;;;;;;23.07;51.92;99687.75;4917999;29;20044;-81
2021/07/11 02:25:03;;;;;;;7.00;3.42;;;;;;;22.94;52.16;99691.75;4917923;29;20499;-81
2021/07/11 02:27:33;;;;;;;4.63;2.90;;;;;;;23.08;51.68;99692.91;4934320;29;20051;-82
2021/07/11 02:30:07;;;;;;;4.05;3.17;;;;;;;22.93;52.70;99692.75;4934626;29;20043;-82
2021/07/11 02:32:35;;;;;;;4.82;3.17;;;;;;;22.88;53.01;99692.44;4937746;29;20044;-79
2021/07/11 02:35:02;;;;;;;3.30;3.00;;;;;;;22.74;53.32;99690.44;4934519;29;20048;-78
2021/07/11 02:37:31;;;;;;;8.93;3.30;;;;;;;22.86;53.17;99696.25;4934292;29;20048;-82
2021/07/11 02:40:02;;;;;;;4.60;3.10;;;;;;;22.81;53.22;99696.75;4933924;29;20078;-81
2021/07/11 02:42:30;;;;;;;6.30;3.47;;;;;;;22.67;54.27;99697.41;4917957;29;20134;-81
2021/07/11 02:44:58;;;;;;;7.43;4.75;;;;;;;22.76;53.99;99701.75;4935841;29;20055;-79
2021/07/11 02:47:37;;;;;;;13.18;4.57;;;;;;;22.67;54.29;99697.41;4921130;29;20087;-80
2021/07/11 02:50:07;;;;;;;6.88;4.22;;;;;;;22.82;54.23;99701.06;4937850;29;20063;-82
2021/07/11 02:52:42;;;;;;;5.65;4.40;;;;;;;22.81;54.46;99703.91;4937133;29;20050;-79
2021/07/11 02:55:17;;;;;;;4.40;4.00;;;;;;;22.80;54.73;99705.72;4936795;29;20044;-80
2021/07/11 02:57:57;;;;;;;6.15;4.10;;;;;;;22.67;55.36;99703.56;4919091;29;20395;-81
2021/07/11 03:00:26;;;;;;;6.85;4.20;;;;;;;22.74;55.42;99701.06;4934147;29;20567;-81
2021/07/11 03:02:56;;;;;;;11.43;4.78;;;;;;;22.73;55.40;99708.19;4936559;29;20043;-81
2021/07/11 03:05:34;;;;;;;7.85;4.93;;;;;;;22.72;56.07;99705.72;4920876;29;20357;-81
2021/07/11 03:08:02;;;;;;;4.97;4.38;;;;;;;22.74;55.82;99701.91;4936413;29;20070;-81
2021/07/11 03:10:30;;;;;;;5.28;4.50;;;;;;;22.74;55.98;99711.69;4920980;29;20075;-79
2021/07/11 03:13:03;;;;;;;5.50;5.00;;;;;;;22.61;56.58;99716.69;4901772;29;20076;-80
2021/07/11 03:15:33;;;;;;;5.57;4.93;;;;;;;22.62;56.69;99716.50;4902022;29;20052;-80
2021/07/11 03:18:02;;;;;;;8.02;5.18;;;;;;;22.51;57.10;99721.34;4914395;29;20044;-80
2021/07/11 03:20:33;;;;;;;8.80;4.82;;;;;;;22.67;56.73;99718.66;4936496;29;20051;-81
2021/07/11 03:23:02;;;;;;;6.57;5.20;;;;;;;22.58;57.24;99724.97;4920532;29;20118;-80
2021/07/11 03:25:30;;;;;;;5.90;5.30;;;;;;;22.60;57.00;99720.34;4920791;29;20044;-80
2021/07/11 03:28:05;;;;;;;6.28;4.82;;;;;;;22.43;57.75;99725.66;4937112;29;20046;-80
2021/07/11 03:30:39;;;;;;;6.90;4.65;;;;;;;22.60;57.29;99717.69;4920368;29;20047;-82
2021/07/11 03:33:08;;;;;;;9.77;5.60;;;;;;;22.44;57.66;99721.19;4937574;29;20051;-83
2021/07/11 03:35:48;;;;;;;6.43;4.80;;;;;;;22.69;57.00;99725.50;4937605;29;20466;-82
2021/07/11 03:38:23;;;;;;;7.57;5.00;;;;;;;22.65;57.13;99720.69;4920436;29;20051;-84
2021/07/11 03:40:54;;;;;;;6.47;4.95;;;;;;;22.51;57.52;99719.50;4920492;29;20040;-83
2021/07/11 03:43:24;;;;;;;8.48;5.43;;;;;;;22.49;57.79;99722.34;4920748;29;20051;-82
2021/07/11 03:45:55;;;;;;;12.20;5.82;;;;;;;22.60;57.46;99728.31;4937516;29;20055;-83
2021/07/11 03:48:31;;;;;;;8.48;4.80;;;;;;;22.36;58.10;99732.59;4937180;29;20070;-83
2021/07/11 03:51:02;;;;;;;6.97;4.82;;;;;;;22.56;57.63;99729.63;4930224;29;20414;-82
2021/07/11 03:53:32;;;;;;;8.55;5.38;;;;;;;22.44;57.66;99731.81;4937362;29;20481;-82
2021/07/11 03:56:03;;;;;;;5.70;4.35;;;;;;;22.36;58.46;99737.91;4936702;29;20126;-81
2021/07/11 03:58:34;;;;;;;5.85;4.68;;;;;;;22.49;57.83;99732.97;4936703;29;20405;-82
2021/07/11 04:01:03;;;;;;;9.55;4.70;;;;;;;22.26;58.63;99736.41;4937388;29;20142;-81
2021/07/11 04:03:33;;;;;;;5.70;5.20;;;;;;;22.23;58.66;99732.28;4937165;29;20044;-81
2021/07/11 04:06:01;;;;;;;5.03;4.53;;;;;;;22.36;58.43;99737.91;4937035;29;20091;-80
2021/07/11 04:08:28;;;;;;;8.45;6.00;;;;;;;22.27;58.77;99733.63;4936849;29;20058;-81
2021/07/11 04:10:58;;;;;;;8.98;4.78;;;;;;;22.34;58.33;99739.09;4937024;29;20469;-81
2021/07/11 04:13:26;;;;;;;8.15;5.18;;;;;;;22.36;58.43;99745.06;4937244;29;20051;-82
2021/07/11 04:16:00;;;;;;;7.30;5.53;;;;;;;22.33;58.56;99735.63;4936814;29;20394;-80
2021/07/11 04:18:29;;;;;;;6.65;4.25;;;;;;;22.68;57.25;99747.72;4936838;29;20122;-80
2021/07/11 04:20:59;;;;;;;6.15;5.28;;;;;;;22.65;57.61;99744.59;4937069;29;20044;-79
2021/07/11 04:23:31;;;;;;;7.32;4.78;;;;;;;22.66;57.82;99744.41;4936635;29;20937;-82
2021/07/11 04:26:00;;;;;;;9.35;7.00;;;;;;;22.66;57.65;99735.63;4936855;29;20509;-83
2021/07/11 04:28:36;;;;;;;17.98;5.28;;;;;;;22.73;57.55;99733.94;4936609;29;20048;-82
2021/07/11 04:31:04;;;;;;;9.10;5.25;;;;;;;22.84;57.32;99738.09;4937012;29;20047;-83
2021/07/11 04:33:33;;;;;;;7.15;4.82;;;;;;;22.82;57.51;99734.78;4936627;29;20454;-82
2021/07/11 04:36:00;;;;;;;8.30;4.93;;;;;;;23.18;56.15;99737.91;4936496;29;20498;-82
2021/07/11 04:38:27;;;;;;;14.48;4.60;;;;;;;23.34;55.95;99735.19;4936092;29;20042;-83
2021/07/11 04:40:55;;;;;;;6.32;4.93;;;;;;;23.27;55.90;99736.84;4936423;29;20044;-82
2021/07/11 04:43:22;;;;;;;5.85;4.78;;;;;;;23.47;55.77;99734.63;4931657;29;20108;-82
2021/07/11 04:45:49;;;;;;;4.95;4.55;;;;;;;23.37;56.12;99726.84;4931149;29;20127;-83
2021/07/11 04:48:16;;;;;;;7.80;5.43;;;;;;;23.50;55.88;99727.16;4933006;29;20055;-82
2021/07/11 04:50:47;;;;;;;7.38;4.65;;;;;;;23.80;54.94;99722.03;4935959;29;20508;-83
2021/07/11 04:53:16;;;;;;;5.75;3.72;;;;;;;23.92;54.88;99726.00;4936235;29;20412;-82
2021/07/11 04:55:45;;;;;;;7.38;3.90;;;;;;;24.06;54.20;99721.72;4935704;29;20067;-82
2021/07/11 04:58:15;;;;;;;7.13;4.15;;;;;;;24.01;54.24;99713.44;4932807;29;20044;-82
2021/07/11 05:00:43;;;;;;;4.43;3.67;;;;;;;23.99;54.64;99718.94;4933722;29;20127;-82
2021/07/11 05:03:10;;;;;;;5.47;3.65;;;;;;;24.15;53.97;99719.84;4935127;29;20570;-79
2021/07/11 05:05:37;;;;;;;5.80;4.18;;;;;;;24.17;53.81;99717.81;4935394;29;20116;-80
2021/07/11 05:08:05;;;;;;;6.00;4.10;;;;;;;24.31;53.36;99722.41;4935236;29;20050;-82
2021/07/11 05:10:32;;;;;;;4.05;3.22;;;;;;;24.37;53.04;99728.88;4927749;29;20477;-82
2021/07/11 05:12:59;;;;;;;4.82;4.18;;;;;;;24.41;52.54;99736.34;4934300;29;20134;-82
2021/07/11 05:15:26;;;;;;;4.45;4.05;;;;;;;24.51;52.05;99728.94;4935439;29;20048;-82
2021/07/11 05:17:53;;;;;;;8.60;3.65;;;;;;;24.68;51.62;99723.47;4918219;29;20454;-81
2021/07/11 05:20:20;;;;;;;11.15;4.05;;;;;;;24.87;50.83;99720.25;4935203;29;20054;-80
2021/07/11 05:22:47;;;;;;;5.22;3.25;;;;;;;24.93;50.80;99722.22;4934600;29;20127;-80
2021/07/11 05:25:14;;;;;;;4.85;3.95;;;;;;;24.80;50.88;99719.34;4935262;29;20083;-79
2021/07/11 05:27:41;;;;;;;7.22;3.65;;;;;;;24.98;50.65;99719.84;4933896;29;20066;-80
2021/07/11 05:30:08;;;;;;;4.68;4.20;;;;;;;24.93;50.73;99729.38;4932786;29;20543;-82
2021/07/11 05:32:35;;;;;;;6.63;3.80;;;;;;;25.14;50.77;99726.88;4931373;29;20497;-84
2021/07/11 05:35:04;;;;;;;6.25;3.92;;;;;;;25.17;50.71;99723.81;4901141;29;20051;-83
2021/07/11 05:37:31;;;;;;;5.57;4.65;;;;;;;25.22;50.68;99717.94;4934962;29;20577;-84
2021/07/11 05:39:58;;;;;;;9.00;3.88;;;;;;;25.15;50.89;99725.03;4926059;29;20781;-85
2021/07/11 05:42:25;;;;;;;6.97;4.28;;;;;;;25.03;51.36;99727.25;4928991;29;20138;-84
2021/07/11 05:44:53;;;;;;;5.68;5.07;;;;;;;25.25;50.32;99728.25;4935136;29;20043;-89
2021/07/11 05:47:20;;;;;;;6.80;4.45;;;;;;;25.59;49.94;99728.50;4939437;29;20134;-95
2021/07/11 05:49:47;;;;;;;4.65;3.58;;;;;;;25.61;49.86;99729.13;4941299;29;20052;-95
2021/07/11 05:52:20;;;;;;;5.63;4.18;;;;;;;25.63;49.96;99725.47;4930854;29;20082;-90
2021/07/11 05:54:48;;;;;;;4.80;4.22;;;;;;;25.58;50.06;99724.16;4931312;29;20160;-89
2021/07/11 05:57:15;;;;;;;6.25;4.30;;;;;;;25.61;49.77;99730.97;4930119;29;20048;-83
2021/07/11 05:59:42;;;;;;;6.20;4.18;;;;;;;25.95;50.20;99732.22;4931327;29;20039;-83
2021/07/11 06:02:09;;;;;;;7.10;3.97;;;;;;;26.17;49.38;99725.06;4934636;29;20067;-85
2021/07/11 06:04:36;;;;;;;6.28;3.58;;;;;;;26.28;49.24;99724.56;4933627;29;20043;-84
2021/07/11 06:07:04;;;;;;;7.78;4.10;;;;;;;26.11;49.41;99722.13;4933124;29;20413;-85
2021/07/11 06:09:31;;;;;;;4.13;3.70;;;;;;;26.20;49.13;99728.16;4931411;29;20042;-85
2021/07/11 06:11:57;;;;;;;3.97;3.50;;;;;;;26.30;48.64;99726.00;4933396;29;20050;-85
2021/07/11 06:14:24;;;;;;;3.90;3.60;;;;;;;26.21;48.64;99723.69;4936016;29;20043;-89
2021/07/11 06:16:51;;;;;;;7.13;4.00;;;;;;;25.74;49.80;99733.84;4933139;29;20111;-86
2021/07/11 06:19:18;;;;;;;6.85;3.67;;;;;;;26.21;48.82;99731.69;4934056;29;20044;-82
2021/07/11 06:21:46;;;;;;;4.68;3.45;;;;;;;26.23;49.11;99732.31;4935323;29;20043;-81
2021/07/11 06:24:13;;;;;;;12.90;3.85;;;;;;;26.54;47.87;99735.53;4932844;29;20538;-83
2021/07/11 06:26:40;;;;;;;14.98;4.13;;;;;;;26.77;47.31;99737.13;4935514;29;20048;-83
2021/07/11 06:29:06;;;;;;;7.63;4.00;;;;;;;26.49;48.13;99743.28;4935803;29;20040;-81
2021/07/11 06:31:33;;;;;;;4.25;3.60;;;;;;;26.70;47.63;99739.75;4931547;29;20058;-83
2021/07/11 06:34:01;;;;;;;5.97;3.58;;;;;;;26.56;47.87;99738.81;4933278;29;20051;-82
2021/07/11 06:36:32;;;;;;;6.28;3.42;;;;;;;26.78;47.58;99744.13;4933736;29;20558;-79
2021/07/11 06:39:01;;;;;;;9.93;3.38;;;;;;;26.63;47.54;99737.06;4935023;29;20055;-80
2021/07/11 06:41:27;;;;;;;7.70;3.80;;;;;;;27.00;47.04;99736.88;4935702;29;20039;-79
2021/07/11 06:43:54;;;;;;;5.72;4.07;;;;;;;26.76;47.34;99743.50;4930861;29;20052;-81
2021/07/11 06:46:21;;;;;;;5.30;4.13;;;;;;;26.25;48.81;99738.28;4936023;29;20131;-81
2021/07/11 06:48:51;;;;;;;4.88;3.15;;;;;;;26.52;48.39;99742.06;4936077;29;20075;-78
2021/07/11 06:51:18;;;;;;;7.57;4.13;;;;;;;26.52;48.34;99747.41;4935174;29;20555;-86
2021/07/11 06:53:45;;;;;;;5.03;3.95;;;;;;;26.73;47.71;99749.22;4936100;29;20044;-82
2021/07/11 06:56:11;;;;;;;7.63;4.50;;;;;;;26.30;48.81;99747.38;4933060;29;20128;-77
2021/07/11 06:58:38;;;;;;;4.40;3.95;;;;;;;26.48;48.54;99746.16;4929983;29;20040;-78
2021/07/11 07:01:06;;;;;;;4.35;3.60;;;;;;;26.61;48.09;99748.94;4936007;29;20098;-75
2021/07/11 07:03:33;;;;;;;8.93;3.80;;;;;;;26.50;48.57;99750.28;4937853;29;20043;-76
2021/07/11 07:06:00;;;;;;;8.32;3.80;;;;;;;26.43;48.49;99741.38;4937504;29;20418;-77
2021/07/11 07:08:28;;;;;;;5.53;4.07;;;;;;;26.66;47.95;99741.16;4937945;29;20051;-76
2021/07/11 07:10:55;;;;;;;10.48;4.10;;;;;;;26.37;48.53;99752.81;4937035;29;20051;-78
2021/07/11 07:13:22;;;;;;;8.57;3.47;;;;;;;26.43;48.92;99741.38;4936446;29;20448;-76
2021/07/11 07:15:49;;;;;;;9.45;4.75;;;;;;;26.52;48.33;99742.88;4936357;29;20529;-76
2021/07/11 07:18:16;;;;;;;5.07;4.10;;;;;;;26.42;48.86;99733.53;4920549;29;20043;-75
2021/07/11 07:20:43;;;;;;;4.05;3.70;;;;;;;26.84;47.99;99740.69;4937098;29;20046;-78
2021/07/11 07:23:10;;;;;;;14.00;4.78;;;;;;;26.38;48.67;99735.75;4936495;29;20135;-76
2021/07/11 07:25:37;;;;;;;4.55;4.15;;;;;;;26.20;49.13;99730.84;4937032;29;20519;-77
2021/07/11 07:28:06;;;;;;;8.25;4.50;;;;;;;25.86;50.17;99732.34;4935336;29;20487;-74
2021/07/11 07:30:33;;;;;;;6.85;4.60;;;;;;;25.90;49.96;99731.97;4931441;29;20039;-75
2021/07/11 07:33:01;;;;;;;7.18;4.15;;;;;;;25.89;50.01;99733.81;4931295;29;20040;-72
2021/07/11 07:35:28;;;;;;;10.15;4.85;;;;;;;25.80;50.21;99727.75;4917155;29;20043;-73
2021/07/11 07:37:55;;;;;;;5.80;4.63;;;;;;;25.76;50.21;99726.47;4933988;29;20043;-75
2021/07/11 07:40:22;;;;;;;6.10;5.40;;;;;;;25.85;50.28;99727.19;4934235;29;20050;-75
2021/07/11 07:42:49;;;;;;;8.63;4.85;;;;;;;25.87;50.01;99727.81;4934575;29;20044;-76
2021/07/11 07:45:17;;;;;;;9.63;4.65;;;;;;;25.93;49.95;99732.41;4933106;29;20127;-74
2021/07/11 07:47:44;;;;;;;10.50;5.60;;;;;;;26.06;49.74;99721.06;4915805;29;20044;-74
2021/07/11 07:50:13;;;;;;;8.52;5.10;;;;;;;26.02;49.48;99725.94;4934378;29;20164;-74
2021/07/11 07:52:40;;;;;;;9.93;4.85;;;;;;;26.34;49.54;99719.28;4935213;29;20130;-74
2021/07/11 07:55:09;;;;;;;6.25;5.60;;;;;;;26.21;49.17;99718.34;4933521;29;20126;-75
2021/07/11 07:57:36;;;;;;;5.55;5.05;;;;;;;25.96;49.61;99717.88;4932327;29;20084;-73
2021/07/11 08:00:10;;;;;;;6.78;3.75;;;;;;;26.68;47.63;99720.41;4930889;29;20059;-73
2021/07/11 08:02:41;;;;;;;6.65;4.40;;;;;;;26.41;49.08;99723.84;4923816;29;20466;-74
2021/07/11 08:05:08;;;;;;;5.03;4.15;;;;;;;25.89;50.27;99719.63;4933498;29;20083;-74
2021/07/11 08:07:36;;;;;;;8.18;5.10;;;;;;;25.79;50.27;99725.28;4933698;29;20142;-74
2021/07/11 08:10:05;;;;;;;5.10;4.60;;;;;;;25.94;49.94;99720.72;4933620;29;20414;-74
2021/07/11 08:12:32;;;;;;;6.97;5.38;;;;;;;25.75;50.40;99726.66;4915353;29;20039;-74
2021/07/11 08:14:59;;;;;;;6.68;5.45;;;;;;;25.92;50.19;99720.06;4932382;29;20044;-74
2021/07/11 08:17:26;;;;;;;6.60;5.78;;;;;;;26.13;49.74;99729.94;4932798;29;20071;-73
2021/07/11 08:19:53;;;;;;;7.50;5.03;;;;;;;26.21;49.34;99719.16;4933557;29;20054;-73
2021/07/11 08:22:20;;;;;;;8.45;5.78;;;;;;;26.20;49.16;99716.66;4932711;29;20099;-73
2021/07/11 08:24:47;;;;;;;9.40;5.30;;;;;;;26.14;49.59;99718.25;4933580;29;20051;-74
2021/07/11 08:27:14;;;;;;;10.65;4.80;;;;;;;26.59;49.44;99716.25;4933367;29;20035;-75
2021/07/11 08:29:41;;;;;;;4.90;4.50;;;;;;;26.12;49.53;99715.78;4915814;29;20062;-74
2021/07/11 08:32:08;;;;;;;6.32;5.40;;;;;;;25.61;50.85;99717.63;4932999;29;20047;-74
2021/07/11 08:34:35;;;;;;;7.32;5.28;;;;;;;25.80;50.41;99708.25;4916030;29;20087;-73
2021/07/11 08:37:03;;;;;;;6.40;5.15;;;;;;;25.60;51.09;99714.13;4932739;29;20042;-74
2021/07/11 08:39:30;;;;;;;7.07;5.82;;;;;;;26.00;49.64;99708.47;4933450;29;20127;-72
2021/07/11 08:41:57;;;;;;;5.75;5.25;;;;;;;25.96;49.61;99712.53;4933104;29;20134;-74
2021/07/11 08:44:25;;;;;;;5.50;5.00;;;;;;;26.13;48.81;99706.72;4929968;29;20071;-74
2021/07/11 08:46:53;;;;;;;7.57;4.60;;;;;;;26.56;47.61;99714.75;4932243;29;20401;-73
2021/07/11 08:49:23;;;;;;;12.73;4.93;;;;;;;26.47;47.87;99713.22;4932554;29;20288;-73
2021/07/11 08:51:56;;;;;;;7.88;5.13;;;;;;;26.13;48.90;99706.72;4933122;29;20631;-73
2021/07/11 08:54:24;;;;;;;6.85;5.22;;;;;;;26.09;48.90;99710.78;4931999;29;20039;-77
2021/07/11 08:57:00;;;;;;;11.20;6.07;;;;;;;25.80;49.56;99709.06;4932591;29;20398;-78
2021/07/11 08:59:28;;;;;;;5.93;4.97;;;;;;;26.32;48.48;99715.16;4931275;29;20043;-77
2021/07/11 09:01:58;;;;;;;6.38;4.95;;;;;;;26.71;47.02;99719.19;4932740;29;20055;-77
2021/07/11 09:04:27;;;;;;;5.40;4.90;;;;;;;26.30;48.49;99718.00;4914450;29;20055;-77
2021/07/11 09:06:56;;;;;;;5.32;4.82;;;;;;;26.57;48.02;99719.09;4932516;29;20044;-76
2021/07/11 09:09:33;;;;;;;8.10;5.18;;;;;;;26.67;48.22;99717.94;4932395;29;20131;-75
2021/07/11 09:12:06;;;;;;;6.38;5.63;;;;;;;26.23;49.03;99714.44;4931721;29;20052;-77
2021/07/11 09:14:51;;;;;;;6.63;5.43;;;;;;;26.25;48.82;99720.41;4930255;29;20050;-76
2021/07/11 09:17:18;;;;;;;9.63;4.93;;;;;;;26.65;47.14;99718.13;4932246;29;20040;-75
2021/07/11 09:19:51;;;;;;;15.85;6.30;;;;;;;26.81;46.48;99712.50;4932548;29;20086;-74
2021/07/11 09:22:22;;;;;;;7.60;4.85;;;;;;;26.55;46.74;99717.63;4931052;29;20048;-77
2021/07/11 09:24:53;;;;;;;7.63;4.50;;;;;;;26.71;47.29;99714.69;4932752;29;20384;-78
2021/07/11 09:27:25;;;;;;;4.53;4.05;;;;;;;26.94;46.54;99709.06;4933923;29;20043;-78
2021/07/11 09:30:01;;;;;;;5.10;4.70;;;;;;;26.75;46.16;99720.47;4929286;29;20095;-77
2021/07/11 09:32:39;;;;;;;5.60;5.10;;;;;;;26.61;46.43;99717.69;4932083;29;20067;-79
2021/07/11 09:35:12;;;;;;;7.22;6.15;;;;;;;26.63;46.23;99723.69;4933928;29;20107;-78
2021/07/11 09:37:45;;;;;;;6.88;4.68;;;;;;;26.75;46.72;99715.94;4934203;29;20454;-75
2021/07/11 09:40:17;;;;;;;8.57;5.13;;;;;;;26.63;46.44;99717.47;4933681;29;20050;-82
2021/07/11 09:42:47;;;;;;;6.57;5.40;;;;;;;26.55;46.90;99717.63;4933799;29;20066;-80
2021/07/11 09:45:20;;;;;;;7.10;5.50;;;;;;;27.06;46.31;99712.88;4933612;29;20079;-78
2021/07/11 09:47:49;;;;;;;4.13;3.80;;;;;;;26.87;45.98;99717.06;4933977;29;20422;-76
2021/07/11 09:50:21;;;;;;;8.00;4.60;;;;;;;27.09;45.73;99712.50;4933471;29;20051;-77
2021/07/11 09:52:50;;;;;;;3.80;3.50;;;;;;;27.35;44.69;99716.34;4934842;29;20090;-76
2021/07/11 09:55:20;;;;;;;7.75;3.67;;;;;;;27.33;44.80;99716.56;4934611;29;20147;-77
2021/07/11 09:57:50;;;;;;;5.03;4.57;;;;;;;27.49;45.01;99711.91;4931168;29;20499;-76
2021/07/11 10:00:22;;;;;;;7.60;3.58;;;;;;;27.72;44.27;99717.78;4938384;29;20080;-77
2021/07/11 10:02:51;;;;;;;7.20;3.97;;;;;;;27.43;43.61;99718.84;4937908;29;20499;-76
2021/07/11 10:05:19;;;;;;;5.55;3.30;;;;;;;27.53;43.14;99719.31;4937818;29;20456;-77
2021/07/11 10:07:46;;;;;;;5.90;3.03;;;;;;;27.74;43.51;99723.75;4937748;29;20503;-78
2021/07/11 10:10:18;;;;;;;10.13;3.80;;;;;;;27.31;43.96;99726.63;4937703;29;20046;-76
2021/07/11 10:12:46;;;;;;;6.40;3.85;;;;;;;27.43;43.68;99718.84;4935955;29;20044;-77
2021/07/11 10:15:16;;;;;;;4.55;2.88;;;;;;;27.65;43.38;99711.56;4935317;29;20511;-76
2021/07/11 10:17:57;;;;;;;5.60;3.75;;;;;;;27.34;43.10;99725.41;4930039;29;20051;-77
2021/07/11 10:20:34;;;;;;;5.53;3.63;;;;;;;27.52;43.35;99712.31;4934273;29;20044;-77
2021/07/11 10:23:02;;;;;;;7.75;3.40;;;;;;;27.56;43.39;99721.59;4933210;29;20055;-77
2021/07/11 10:25:31;;;;;;;3.80;3.10;;;;;;;27.62;42.17;99720.78;4934824;29;20040;-75
2021/07/11 10:28:06;;;;;;;4.55;3.55;;;;;;;27.72;41.54;99722.31;4935488;29;20070;-76
2021/07/11 10:30:34;;;;;;;5.15;3.53;;;;;;;27.45;42.63;99714.13;4935944;29;20066;-83
2021/07/11 10:33:07;;;;;;;5.25;3.17;;;;;;;27.78;42.06;99708.13;4936141;29;20071;-76
2021/07/11 10:35:34;;;;;;;4.45;3.85;;;;;;;27.75;42.44;99711.19;4936190;29;20032;-77
2021/07/11 10:38:01;;;;;;;4.65;4.25;;;;;;;27.59;43.47;99709.66;4936115;29;20039;-79
2021/07/11 10:40:32;;;;;;;4.13;3.75;;;;;;;27.69;43.08;99697.53;4936352;29;20103;-77
2021/07/11 10:43:00;;;;;;;3.13;2.83;;;;;;;27.93;42.68;99704.25;4935943;29;20498;-76
2021/07/11 10:45:27;;;;;;;3.60;3.30;;;;;;;27.97;41.72;99699.31;4936067;29;20035;-76
2021/07/11 10:48:04;;;;;;;4.25;3.30;;;;;;;28.06;42.37;99697.25;4918558;29;20387;-76
2021/07/11 10:50:32;;;;;;;6.20;3.75;;;;;;;27.79;42.29;99701.72;4935827;29;20040;-76
2021/07/11 10:53:00;;;;;;;8.10;3.90;;;;;;;27.44;42.38;99698.28;4937701;29;20506;-77
2021/07/11 10:55:39;;;;;;;4.82;3.50;;;;;;;27.61;42.57;99705.75;4937400;29;20046;-78
2021/07/11 10:58:14;;;;;;;4.50;3.05;;;;;;;27.79;41.66;99696.38;4935437;29;20039;-76
2021/07/11 11:00:42;;;;;;;5.47;3.00;;;;;;;27.90;41.32;99707.31;4936863;29;20122;-76
2021/07/11 11:03:18;;;;;;;3.15;2.72;;;;;;;28.20;39.90;99699.75;4936414;29;20127;-80
2021/07/11 11:05:48;;;;;;;7.47;3.17;;;;;;;28.06;41.26;99698.09;4932355;29;20044;-82
2021/07/11 11:08:21;;;;;;;5.88;2.92;;;;;;;27.76;42.15;99691.44;4930389;29;20120;-83
2021/07/11 11:10:54;;;;;;;8.73;3.83;;;;;;;27.75;41.73;99692.44;4918712;29;20107;-77
2021/07/11 11:13:25;;;;;;;3.35;2.60;;;;;;;28.03;41.30;99687.78;4936702;29;20048;-91
2021/07/11 11:16:01;;;;;;;5.00;4.40;;;;;;;27.73;41.75;99697.19;4937294;29;20054;-78
2021/07/11 11:18:30;;;;;;;9.27;4.57;;;;;;;27.80;41.81;99695.34;4936124;29;20072;-77
2021/07/11 11:21:02;;;;;;;8.57;2.85;;;;;;;28.13;40.55;99698.94;4937607;29;20534;-77
2021/07/11 11:23:38;;;;;;;5.38;3.40;;;;;;;28.33;40.78;99696.28;4936215;29;20048;-77
2021/07/11 11:26:07;;;;;;;3.55;3.00;;;;;;;27.86;41.60;99697.22;4937441;29;20110;-76
2021/07/11 11:28:38;;;;;;;7.70;4.22;;;;;;;28.16;41.53;99689.66;4934439;29;20107;-78
2021/07/11 11:31:06;;;;;;;3.35;3.03;;;;;;;27.99;42.03;99691.06;4935618;29;20502;-77
2021/07/11 11:34:04;;;;;;;5.82;3.30;;;;;;;27.92;41.80;99693.75;4935496;29;20139;-75
2021/07/11 11:36:32;;;;;;;6.32;2.92;;;;;;;28.26;41.11;99697.28;4936057;29;20063;-79
2021/07/11 11:39:06;;;;;;;4.45;3.08;;;;;;;27.97;41.72;99695.81;4936251;29;20046;-82
2021/07/11 11:41:34;;;;;;;3.85;3.05;;;;;;;28.14;41.09;99687.19;4935966;29;20040;-78
2021/07/11 11:44:12;;;;;;;6.25;2.67;;;;;;;28.17;41.31;99685.94;4936308;29;20094;-79
2021/07/11 11:46:42;;;;;;;4.05;2.72;;;;;;;28.65;40.62;99680.41;4933608;29;20054;-78